Time;durP1;ratioP1;P1;durP2;ratioP2;P2;SDS_P1;SDS_P2;PMS_P1;PMS_P2;Temp;Humidity;BMP_temperature;BMP_pressure;BME280_temperature;BME280_humidity;BME280_pressure;Samples;Min_cycle;Max_cycle;Signal;HPM_P1;HPM_P2
2023/08/20 00:00:53;;;;;;;9.10;4.82;;;21.00;99.90;;;;;;5050846;28;20033;-81
2023/08/20 00:03:18;;;;;;;11.23;4.97;;;21.00;99.90;;;;;;5052089;28;20489;-81
2023/08/20 00:05:44;;;;;;;4.95;4.40;;;21.00;99.90;;;;;;5051850;28;20032;-81
2023/08/20 00:08:10;;;;;;;8.38;4.82;;;21.00;99.90;;;;;;5051706;28;20029;-81
2023/08/20 00:10:36;;;;;;;7.25;4.72;;;21.00;99.90;;;;;;5050815;28;20029;-81
2023/08/20 00:13:01;;;;;;;5.50;4.57;;;21.00;99.90;;;;;;5051439;28;20045;-81
2023/08/20 00:15:27;;;;;;;9.82;5.47;;;21.00;99.90;;;;;;5051858;28;20029;-81
2023/08/20 00:17:55;;;;;;;8.80;5.28;;;21.00;99.90;;;;;;5050254;28;20080;-80
2023/08/20 00:20:21;;;;;;;8.95;5.20;;;21.00;99.90;;;;;;5051793;28;20517;-81
2023/08/20 00:22:47;;;;;;;10.05;4.95;;;21.00;99.90;;;;;;5052036;28;20104;-82
2023/08/20 00:25:15;;;;;;;9.57;4.80;;;21.00;99.90;;;;;;5051622;28;20037;-82
2023/08/20 00:27:41;;;;;;;9.00;5.45;;;21.00;99.90;;;;;;5051592;28;20032;-81
2023/08/20 00:30:08;;;;;;;8.48;5.60;;;21.00;99.90;;;;;;5051671;28;20033;-81
2023/08/20 00:32:34;;;;;;;16.33;4.80;;;21.00;99.90;;;;;;5051403;28;20017;-81
2023/08/20 00:35:00;;;;;;;10.15;4.97;;;20.90;99.90;;;;;;5051212;28;20024;-80
2023/08/20 00:37:26;;;;;;;8.77;5.57;;;20.90;99.90;;;;;;5049884;28;20095;-80
2023/08/20 00:39:51;;;;;;;9.07;5.43;;;20.90;99.90;;;;;;5051097;28;20582;-81
2023/08/20 00:42:17;;;;;;;6.05;4.68;;;20.80;99.90;;;;;;5050029;28;20607;-81
2023/08/20 00:44:45;;;;;;;8.98;5.00;;;20.80;99.90;;;;;;5049904;28;20190;-83
2023/08/20 00:47:13;;;;;;;11.82;4.63;;;20.80;99.90;;;;;;5051172;28;20035;-82
2023/08/20 00:49:40;;;;;;;10.13;5.43;;;20.80;99.90;;;;;;5051520;28;20033;-81
2023/08/20 00:52:08;;;;;;;9.05;4.95;;;20.80;99.90;;;;;;5051505;28;20440;-83
2023/08/20 00:54:34;;;;;;;7.28;5.28;;;20.80;99.90;;;;;;5050026;28;20527;-82
2023/08/20 00:57:01;;;;;;;12.40;4.38;;;20.70;99.90;;;;;;5051085;28;20029;-82
2023/08/20 00:59:28;;;;;;;16.98;4.97;;;20.70;99.90;;;;;;5051490;28;20033;-83
2023/08/20 01:01:54;;;;;;;8.10;5.20;;;20.70;99.90;;;;;;5049554;28;20027;-81
2023/08/20 01:04:19;;;;;;;15.77;5.35;;;20.70;99.90;;;;;;5049265;28;20032;-82
2023/08/20 01:07:07;;;;;;;7.22;4.38;;;20.70;99.90;;;;;;5049610;28;20033;-81
2023/08/20 01:10:10;;;;;;;8.57;5.25;;;20.70;99.90;;;;;;5050541;28;20051;-82
2023/08/20 01:12:37;;;;;;;12.85;5.05;;;20.80;99.90;;;;;;5050562;28;20051;-82
2023/08/20 01:15:03;;;;;;;16.35;5.75;;;20.70;99.90;;;;;;5049518;28;20082;-80
2023/08/20 01:17:29;;;;;;;13.10;5.13;;;20.70;99.90;;;;;;5050764;28;20486;-83
2023/08/20 01:19:55;;;;;;;7.93;5.50;;;20.70;99.90;;;;;;5050617;28;20028;-82
2023/08/20 01:22:45;;;;;;;11.40;5.07;;;20.70;99.90;;;;;;5050289;28;20060;-82
2023/08/20 01:25:50;;;;;;;8.45;4.85;;;20.60;99.90;;;;;;5048874;28;20591;-81
2023/08/20 01:28:30;;;;;;;11.40;5.22;;;20.60;99.90;;;;;;5049061;28;20154;-81
2023/08/20 01:31:00;;;;;;;11.93;5.53;;;20.60;99.90;;;;;;5048785;28;20029;-81
2023/08/20 01:33:27;;;;;;;10.23;5.40;;;20.50;99.90;;;;;;5049057;28;20023;-81
2023/08/20 01:35:54;;;;;;;6.07;4.78;;;20.50;99.90;;;;;;5048756;28;20033;-81
2023/08/20 01:38:20;;;;;;;16.00;5.25;;;20.50;99.90;;;;;;5048691;28;20025;-81
2023/08/20 01:40:46;;;;;;;9.05;4.72;;;20.40;99.90;;;;;;5050207;28;20017;-81
2023/08/20 01:43:12;;;;;;;8.68;5.20;;;20.50;99.90;;;;;;5049152;28;20045;-82
2023/08/20 01:45:38;;;;;;;6.60;5.47;;;20.40;99.90;;;;;;5048770;28;20044;-82
2023/08/20 01:48:04;;;;;;;10.55;5.50;;;20.40;99.90;;;;;;5049940;28;20489;-81
2023/08/20 01:50:30;;;;;;;8.20;5.35;;;20.40;99.90;;;;;;5050152;28;20036;-81
2023/08/20 01:52:56;;;;;;;7.30;5.20;;;20.40;99.90;;;;;;5050206;28;20040;-82
2023/08/20 01:55:21;;;;;;;5.75;5.18;;;20.40;99.90;;;;;;5048907;28;20397;-82
2023/08/20 01:57:47;;;;;;;10.73;5.35;;;20.40;99.90;;;;;;5048920;28;20110;-81
2023/08/20 02:00:13;;;;;;;9.63;5.38;;;20.40;99.90;;;;;;5050039;28;20039;-80
2023/08/20 02:02:39;;;;;;;6.28;5.03;;;20.40;99.90;;;;;;5050038;28;20036;-79
2023/08/20 02:05:05;;;;;;;10.90;5.10;;;20.40;99.90;;;;;;5049581;28;20032;-80
2023/08/20 02:07:30;;;;;;;7.20;5.72;;;20.40;99.90;;;;;;5048700;28;20025;-79
2023/08/20 02:09:56;;;;;;;7.43;4.75;;;20.40;99.90;;;;;;5048729;28;20106;-81
2023/08/20 02:12:21;;;;;;;11.73;5.47;;;20.40;99.90;;;;;;5048468;28;20033;-81
2023/08/20 02:14:47;;;;;;;13.27;5.10;;;20.40;99.90;;;;;;5049837;28;20431;-80
2023/08/20 02:17:14;;;;;;;10.40;4.95;;;20.40;99.90;;;;;;5049753;28;20108;-81
2023/08/20 02:19:39;;;;;;;10.43;4.78;;;20.40;99.90;;;;;;5049677;28;20456;-80
2023/08/20 02:22:05;;;;;;;8.23;4.32;;;20.40;99.90;;;;;;5049912;28;20056;-81
2023/08/20 02:24:31;;;;;;;11.50;5.15;;;20.40;99.90;;;;;;5048689;28;20575;-81
2023/08/20 02:26:57;;;;;;;7.95;4.82;;;20.50;99.90;;;;;;5049638;28;20390;-81
2023/08/20 02:29:23;;;;;;;10.45;5.35;;;20.50;99.90;;;;;;5048456;28;20056;-83
2023/08/20 02:31:48;;;;;;;8.45;4.82;;;20.60;99.90;;;;;;5048580;28;20056;-82
2023/08/20 02:34:14;;;;;;;5.53;3.95;;;20.60;99.90;;;;;;5048783;28;20103;-83
2023/08/20 02:36:40;;;;;;;7.18;5.18;;;20.50;99.90;;;;;;5048857;28;20394;-82
2023/08/20 02:39:07;;;;;;;7.30;4.50;;;20.60;99.90;;;;;;5048470;28;20022;-84
2023/08/20 02:41:35;;;;;;;12.10;5.13;;;20.60;99.90;;;;;;5050198;28;20039;-83
2023/08/20 02:44:02;;;;;;;17.95;5.65;;;20.50;99.90;;;;;;5049391;28;20063;-83
2023/08/20 02:46:27;;;;;;;6.15;5.40;;;20.50;99.90;;;;;;5048027;28;20028;-82
2023/08/20 02:48:53;;;;;;;7.78;5.18;;;20.50;99.90;;;;;;5049776;28;20029;-81
2023/08/20 02:51:19;;;;;;;4.90;4.40;;;20.50;99.90;;;;;;5050391;28;20402;-83
2023/08/20 02:53:44;;;;;;;7.13;4.50;;;20.50;99.90;;;;;;5050128;28;20021;-83
2023/08/20 02:56:10;;;;;;;11.43;5.30;;;20.50;99.90;;;;;;5049372;28;20029;-83
2023/08/20 02:58:36;;;;;;;12.38;4.57;;;20.40;99.90;;;;;;5049939;28;20032;-81
2023/08/20 03:01:02;;;;;;;10.85;4.90;;;20.40;99.90;;;;;;5049064;28;20029;-82
2023/08/20 03:03:28;;;;;;;9.05;5.20;;;20.40;99.90;;;;;;5053417;28;20115;-82
2023/08/20 03:05:53;;;;;;;7.13;4.75;;;20.40;99.90;;;;;;5051752;28;20123;-82
2023/08/20 03:08:19;;;;;;;8.90;5.15;;;20.40;99.90;;;;;;5051639;28;20451;-81
2023/08/20 03:10:45;;;;;;;13.05;5.28;;;20.40;99.90;;;;;;5051798;28;20024;-82
2023/08/20 03:13:11;;;;;;;8.45;4.57;;;20.40;99.90;;;;;;5052898;28;20106;-81
2023/08/20 03:15:37;;;;;;;12.40;4.78;;;20.40;99.90;;;;;;5052970;28;20029;-83
2023/08/20 03:18:03;;;;;;;8.80;5.85;;;20.40;99.90;;;;;;5053115;28;20036;-82
2023/08/20 03:20:30;;;;;;;5.03;4.40;;;20.40;99.90;;;;;;5051543;28;20024;-81
2023/08/20 03:22:56;;;;;;;13.45;5.20;;;20.40;99.90;;;;;;5052804;28;20025;-81
2023/08/20 03:25:22;;;;;;;11.98;4.85;;;20.40;99.90;;;;;;5052563;28;20713;-82
2023/08/20 03:27:49;;;;;;;9.65;5.75;;;20.40;99.90;;;;;;5052662;28;20067;-80
2023/08/20 03:30:14;;;;;;;6.63;5.80;;;20.40;99.90;;;;;;5052494;28;20025;-82
2023/08/20 03:32:40;;;;;;;9.98;4.90;;;20.30;99.90;;;;;;5052539;28;20398;-82
2023/08/20 03:35:06;;;;;;;11.25;5.50;;;20.30;99.90;;;;;;5052291;28;20082;-82
2023/08/20 03:37:32;;;;;;;10.30;5.07;;;20.20;99.90;;;;;;5052352;28;20021;-81
2023/08/20 03:39:57;;;;;;;9.38;5.25;;;20.20;99.90;;;;;;5051107;28;20492;-82
2023/08/20 03:42:23;;;;;;;10.65;5.32;;;20.20;99.90;;;;;;5051056;28;20155;-81
2023/08/20 03:44:49;;;;;;;7.22;4.60;;;20.20;99.90;;;;;;5052056;28;20485;-81
2023/08/20 03:47:15;;;;;;;12.73;4.80;;;20.20;99.90;;;;;;5052182;28;20059;-81
2023/08/20 03:49:41;;;;;;;10.23;4.70;;;20.30;99.90;;;;;;5052129;28;20152;-80
2023/08/20 03:52:06;;;;;;;9.68;5.85;;;20.30;99.90;;;;;;5051996;28;20104;-79
2023/08/20 03:54:33;;;;;;;10.70;5.45;;;20.30;99.90;;;;;;5052041;28;20033;-82
2023/08/20 03:56:59;;;;;;;6.93;4.53;;;20.30;99.90;;;;;;5050737;28;20067;-80
2023/08/20 03:59:24;;;;;;;19.48;6.10;;;20.30;99.90;;;;;;5051797;28;20432;-82
2023/08/20 04:01:50;;;;;;;12.98;6.15;;;20.30;99.90;;;;;;5050583;28;20033;-81
2023/08/20 04:04:16;;;;;;;9.52;5.45;;;20.30;99.90;;;;;;5050438;28;20037;-81
2023/08/20 04:06:41;;;;;;;7.15;5.18;;;20.20;99.90;;;;;;5050443;28;20053;-79
2023/08/20 04:09:09;;;;;;;11.05;5.30;;;20.20;99.90;;;;;;5051777;28;20132;-81
2023/08/20 04:11:35;;;;;;;8.45;6.00;;;20.20;99.90;;;;;;5050765;28;20535;-81
2023/08/20 04:14:00;;;;;;;12.27;5.38;;;20.20;99.90;;;;;;5049816;28;20057;-81
2023/08/20 04:16:26;;;;;;;12.20;5.72;;;20.30;99.90;;;;;;5051680;28;20035;-81
2023/08/20 04:18:52;;;;;;;14.63;5.35;;;20.20;99.90;;;;;;5051535;28;20033;-79
2023/08/20 04:21:17;;;;;;;12.32;4.82;;;20.30;99.90;;;;;;5050193;28;20029;-80
2023/08/20 04:23:43;;;;;;;11.50;5.32;;;20.40;99.90;;;;;;5051303;28;20060;-81
2023/08/20 04:26:09;;;;;;;15.05;5.68;;;20.50;99.90;;;;;;5049984;28;20119;-81
2023/08/20 04:28:34;;;;;;;9.07;4.95;;;20.50;99.90;;;;;;5032843;28;20036;-81
2023/08/20 04:31:00;;;;;;;14.07;5.90;;;20.60;99.90;;;;;;5031419;28;20025;-82
2023/08/20 04:33:26;;;;;;;10.63;4.90;;;20.70;99.90;;;;;;5030553;28;20033;-80
2023/08/20 04:35:52;;;;;;;7.13;4.75;;;20.70;99.90;;;;;;5031500;28;20026;-81
2023/08/20 04:38:18;;;;;;;7.72;4.95;;;20.80;99.90;;;;;;5030176;28;20520;-81
2023/08/20 04:40:48;;;;;;;5.30;4.80;;;20.80;99.90;;;;;;5031472;28;20021;-81
2023/08/20 04:43:14;;;;;;;10.95;4.60;;;20.90;99.90;;;;;;5038393;28;20053;-81
2023/08/20 04:45:40;;;;;;;7.25;4.97;;;21.00;99.90;;;;;;5038536;28;20120;-80
2023/08/20 04:48:06;;;;;;;14.02;5.43;;;21.10;99.90;;;;;;5029966;28;20060;-81
2023/08/20 04:50:31;;;;;;;6.22;4.50;;;21.20;99.90;;;;;;5030859;28;20025;-80
2023/08/20 04:52:59;;;;;;;10.00;4.55;;;21.30;99.90;;;;;;5029794;28;20086;-80
2023/08/20 04:55:25;;;;;;;11.43;5.10;;;21.40;99.90;;;;;;5033139;28;20078;-81
2023/08/20 04:57:51;;;;;;;8.10;4.40;;;21.50;99.90;;;;;;5050694;28;20017;-79
2023/08/20 05:00:17;;;;;;;12.27;5.15;;;21.70;99.90;;;;;;5050714;28;20163;-80
2023/08/20 05:02:42;;;;;;;8.15;4.35;;;22.00;99.90;;;;;;5050508;28;20096;-80
2023/08/20 05:05:08;;;;;;;10.30;4.88;;;22.30;99.90;;;;;;5047663;28;20044;-80
2023/08/20 05:07:34;;;;;;;10.55;5.63;;;22.60;99.90;;;;;;5036034;28;20560;-80
2023/08/20 05:10:00;;;;;;;9.88;5.53;;;22.70;99.90;;;;;;5040016;28;20083;-81
2023/08/20 05:12:26;;;;;;;21.80;7.95;;;22.80;99.90;;;;;;5039526;28;20067;-81
2023/08/20 05:14:51;;;;;;;35.10;16.83;;;22.90;99.90;;;;;;5041228;28;20040;-81
2023/08/20 05:17:17;;;;;;;37.30;17.42;;;23.00;99.90;;;;;;5035813;28;20034;-80
2023/08/20 05:19:42;;;;;;;17.05;9.38;;;23.20;99.90;;;;;;5028917;28;20041;-81
2023/08/20 05:22:10;;;;;;;41.38;20.25;;;23.40;99.90;;;;;;5030625;28;20454;-81
2023/08/20 05:24:36;;;;;;;41.22;22.15;;;23.60;99.90;;;;;;5029725;28;20033;-81
2023/08/20 05:27:14;;;;;;;54.15;29.60;;;24.10;99.90;;;;;;5029121;28;20037;-81
2023/08/20 05:29:40;;;;;;;44.47;25.45;;;24.60;99.90;;;;;;5028896;28;20029;-81
2023/08/20 05:32:09;;;;;;;70.35;32.20;;;25.00;99.90;;;;;;5030147;28;20080;-81
2023/08/20 05:34:35;;;;;;;55.97;32.90;;;25.20;99.90;;;;;;5030340;28;20037;-81
2023/08/20 05:37:01;;;;;;;57.67;31.38;;;25.40;99.90;;;;;;5029799;28;20033;-81
2023/08/20 05:39:27;;;;;;;53.45;29.92;;;25.60;99.90;;;;;;5030564;28;20034;-80
2023/08/20 05:41:55;;;;;;;62.35;31.85;;;25.70;99.90;;;;;;5029911;28;20125;-82
2023/08/20 05:44:21;;;;;;;46.58;25.58;;;25.90;99.90;;;;;;5028748;28;20053;-80
2023/08/20 05:46:47;;;;;;;42.30;21.75;;;26.20;99.90;;;;;;5035337;28;20025;-81
2023/08/20 05:49:15;;;;;;;31.80;17.70;;;26.60;99.90;;;;;;5029999;28;20033;-81
2023/08/20 05:51:44;;;;;;;24.35;14.15;;;27.00;99.90;;;;;;5030001;28;20014;-81
2023/08/20 05:54:11;;;;;;;21.50;12.02;;;27.40;99.90;;;;;;5029866;28;20032;-80
2023/08/20 05:56:37;;;;;;;26.40;9.13;;;27.90;98.70;;;;;;5029831;28;20033;-82
2023/08/20 05:59:03;;;;;;;12.05;7.15;;;28.30;97.30;;;;;;5029012;28;20463;-81
2023/08/20 06:01:28;;;;;;;10.38;6.65;;;28.70;95.20;;;;;;5028277;28;20068;-81
2023/08/20 06:03:54;;;;;;;10.35;5.20;;;29.10;93.50;;;;;;5027947;28;20025;-80
2023/08/20 06:06:20;;;;;;;9.00;5.35;;;29.50;92.40;;;;;;5028175;28;20548;-81
2023/08/20 06:08:46;;;;;;;5.65;4.25;;;29.90;92.10;;;;;;5028321;28;20026;-80
2023/08/20 06:11:11;;;;;;;6.70;3.90;;;30.30;90.20;;;;;;5029516;28;20516;-81
2023/08/20 06:13:37;;;;;;;7.35;2.97;;;30.60;86.60;;;;;;5027888;28;20053;-81
2023/08/20 06:16:03;;;;;;;9.65;3.03;;;30.90;81.40;;;;;;5029286;28;20426;-80
2023/08/20 06:18:28;;;;;;;10.00;3.13;;;31.40;79.10;;;;;;5028212;28;20018;-80
2023/08/20 06:20:54;;;;;;;3.03;2.40;;;31.60;75.60;;;;;;5027924;28;20460;-81
2023/08/20 06:23:19;;;;;;;6.28;2.45;;;31.90;73.70;;;;;;5028119;28;20021;-80
2023/08/20 06:25:45;;;;;;;10.98;3.30;;;32.30;71.40;;;;;;5029219;28;20112;-80
2023/08/20 06:28:12;;;;;;;6.10;3.38;;;32.70;69.90;;;;;;5027937;28;20029;-82
2023/08/20 06:30:37;;;;;;;6.50;3.35;;;33.00;67.40;;;;;;5029281;28;20033;-81
2023/08/20 06:33:03;;;;;;;5.90;2.97;;;33.40;66.20;;;;;;5029342;28;20052;-80
2023/08/20 06:35:29;;;;;;;6.05;3.38;;;33.70;64.00;;;;;;5030953;28;20109;-80
2023/08/20 06:37:54;;;;;;;15.52;3.38;;;33.90;63.50;;;;;;5033136;28;20452;-82
2023/08/20 06:40:20;;;;;;;6.85;3.30;;;34.10;63.30;;;;;;5032024;28;20029;-82
2023/08/20 06:42:45;;;;;;;8.38;3.10;;;34.30;62.00;;;;;;5033340;28;20022;-81
2023/08/20 06:45:12;;;;;;;4.60;2.92;;;34.50;62.20;;;;;;5033049;28;20041;-82
2023/08/20 06:47:37;;;;;;;8.73;2.92;;;34.70;61.40;;;;;;5033235;28;20032;-81
2023/08/20 06:50:04;;;;;;;3.58;2.28;;;35.10;60.50;;;;;;5031875;28;20033;-80
2023/08/20 06:52:29;;;;;;;5.40;2.28;;;35.00;60.30;;;;;;5031436;28;20029;-82
2023/08/20 06:54:55;;;;;;;7.80;2.90;;;35.10;61.00;;;;;;5032956;28;20029;-82
2023/08/20 06:57:20;;;;;;;5.85;2.75;;;35.20;59.90;;;;;;5031720;28;20189;-83
2023/08/20 06:59:46;;;;;;;6.88;3.00;;;35.40;59.20;;;;;;5033058;28;20525;-81
2023/08/20 07:02:12;;;;;;;3.42;2.30;;;35.50;59.50;;;;;;5031844;28;20390;-81
2023/08/20 07:04:37;;;;;;;9.43;2.80;;;35.90;58.20;;;;;;5031285;28;20433;-80
2023/08/20 07:07:07;;;;;;;5.50;2.30;;;36.20;57.60;;;;;;5031695;28;20026;-81
2023/08/20 07:09:33;;;;;;;5.47;2.45;;;36.50;56.40;;;;;;5031514;28;20087;-82
2023/08/20 07:11:59;;;;;;;6.28;3.00;;;36.80;54.90;;;;;;5032667;28;20112;-81
2023/08/20 07:14:25;;;;;;;5.47;3.30;;;37.10;54.80;;;;;;5032572;28;20488;-81
2023/08/20 07:16:50;;;;;;;6.30;3.50;;;37.30;55.40;;;;;;5032555;28;20529;-81
2023/08/20 07:19:16;;;;;;;11.15;4.13;;;37.40;54.70;;;;;;5031300;28;20025;-81
2023/08/20 07:21:42;;;;;;;8.63;3.92;;;37.40;54.40;;;;;;5031456;28;20517;-81
2023/08/20 07:24:07;;;;;;;7.97;3.85;;;37.40;53.90;;;;;;5031128;28;20063;-82
2023/08/20 07:26:33;;;;;;;6.50;3.00;;;37.50;52.20;;;;;;5030958;28;20033;-81
2023/08/20 07:28:59;;;;;;;7.55;4.00;;;37.50;52.00;;;;;;5031179;28;20037;-81
2023/08/20 07:31:27;;;;;;;8.43;4.10;;;37.50;51.40;;;;;;5032472;28;20053;-79
2023/08/20 07:33:54;;;;;;;5.90;3.92;;;37.60;52.10;;;;;;5032525;28;20045;-80
2023/08/20 07:36:23;;;;;;;6.20;4.68;;;37.70;51.70;;;;;;5032184;28;20025;-79
2023/08/20 07:38:53;;;;;;;8.25;5.10;;;37.80;52.00;;;;;;5032296;28;20037;-82
2023/08/20 07:41:20;;;;;;;10.70;5.82;;;37.60;52.00;;;;;;5031137;28;20064;-81
2023/08/20 07:43:46;;;;;;;10.82;5.55;;;37.80;52.10;;;;;;5032098;28;20481;-82
2023/08/20 07:46:12;;;;;;;12.90;7.10;;;37.90;51.90;;;;;;5030116;28;20037;-81
2023/08/20 07:48:38;;;;;;;7.18;5.50;;;38.00;51.60;;;;;;5031915;28;20064;-82
2023/08/20 07:51:05;;;;;;;15.00;5.35;;;38.20;50.70;;;;;;5032080;28;20040;-81
2023/08/20 07:53:32;;;;;;;6.55;4.45;;;38.20;51.80;;;;;;5030560;28;20032;-81
2023/08/20 07:55:57;;;;;;;5.80;3.70;;;38.40;51.20;;;;;;5032026;28;20030;-81
2023/08/20 07:58:23;;;;;;;13.63;4.60;;;38.60;51.10;;;;;;5031867;28;20083;-81
2023/08/20 08:00:49;;;;;;;7.50;4.47;;;38.80;50.60;;;;;;5030435;28;20032;-82
2023/08/20 08:03:14;;;;;;;14.48;4.32;;;38.70;49.80;;;;;;5031868;28;20036;-81
2023/08/20 08:05:41;;;;;;;5.35;4.10;;;38.70;49.80;;;;;;5030234;28;20030;-81
2023/08/20 08:08:07;;;;;;;9.35;4.60;;;38.90;50.70;;;;;;5031799;28;20041;-83
2023/08/20 08:10:32;;;;;;;8.40;4.63;;;39.30;49.50;;;;;;5030378;28;20033;-82
2023/08/20 08:12:58;;;;;;;9.20;4.40;;;39.40;48.30;;;;;;5031308;28;20057;-81
2023/08/20 08:15:23;;;;;;;8.68;4.82;;;39.80;49.40;;;;;;5031269;28;20052;-82
2023/08/20 08:17:49;;;;;;;11.77;4.47;;;40.00;49.50;;;;;;5031404;28;20490;-81
2023/08/20 08:20:15;;;;;;;9.77;5.20;;;40.10;47.90;;;;;;5030347;28;20029;-81
2023/08/20 08:22:40;;;;;;;8.45;4.65;;;39.90;48.00;;;;;;5030217;28;20033;-81
2023/08/20 08:25:06;;;;;;;9.88;6.82;;;39.90;48.30;;;;;;5029988;28;20041;-81
2023/08/20 08:27:32;;;;;;;8.40;4.32;;;39.90;48.60;;;;;;5027693;28;20095;-81
2023/08/20 08:29:58;;;;;;;10.30;4.80;;;39.80;48.00;;;;;;5029955;28;20111;-82
2023/08/20 08:32:23;;;;;;;7.13;4.47;;;39.80;48.70;;;;;;5030003;28;20087;-81
2023/08/20 08:34:49;;;;;;;8.40;4.05;;;39.60;48.50;;;;;;5031298;28;20021;-81
2023/08/20 08:37:15;;;;;;;9.10;3.92;;;39.50;47.40;;;;;;5044349;28;20393;-82
2023/08/20 08:39:41;;;;;;;8.50;4.10;;;39.60;47.20;;;;;;5049580;28;20112;-81
2023/08/20 08:42:10;;;;;;;6.22;3.60;;;39.80;46.90;;;;;;5040561;28;20091;-81
2023/08/20 08:44:37;;;;;;;12.35;3.80;;;39.80;46.80;;;;;;5029571;28;20116;-82
2023/08/20 08:47:04;;;;;;;6.45;4.30;;;39.80;47.00;;;;;;5031037;28;20196;-81
2023/08/20 08:49:33;;;;;;;9.48;3.80;;;39.80;45.50;;;;;;5031185;28;20016;-82
2023/08/20 08:51:59;;;;;;;8.93;3.97;;;40.00;45.60;;;;;;5030986;28;20083;-81
2023/08/20 08:54:26;;;;;;;8.48;3.97;;;40.10;45.80;;;;;;5030863;28;20045;-80
2023/08/20 08:56:52;;;;;;;7.03;4.03;;;40.10;45.40;;;;;;5030620;28;20017;-82
2023/08/20 08:59:18;;;;;;;7.10;3.65;;;40.00;46.00;;;;;;5030660;28;20083;-80
2023/08/20 09:01:44;;;;;;;5.07;3.55;;;40.10;46.40;;;;;;5030621;28;20107;-80
2023/08/20 09:04:10;;;;;;;6.82;3.45;;;40.10;45.80;;;;;;5039102;28;20509;-82
2023/08/20 09:06:49;;;;;;;8.98;3.47;;;40.20;46.00;;;;;;5049199;28;20035;-82
2023/08/20 09:09:17;;;;;;;8.40;4.00;;;40.60;43.10;;;;;;5051164;28;20061;-80
2023/08/20 09:11:43;;;;;;;9.95;4.00;;;40.20;45.30;;;;;;5048960;28;20059;-82
2023/08/20 09:14:32;;;;;;;7.78;3.90;;;40.20;44.80;;;;;;5048985;28;20509;-82
2023/08/20 09:17:01;;;;;;;8.25;4.15;;;40.30;45.80;;;;;;5048485;28;20064;-81
2023/08/20 09:19:35;;;;;;;7.88;3.80;;;40.20;44.50;;;;;;5050248;28;20021;-81
2023/08/20 09:22:01;;;;;;;8.68;3.35;;;40.50;45.20;;;;;;5048644;28;20028;-80
2023/08/20 09:24:46;;;;;;;14.48;4.28;;;40.70;44.70;;;;;;5048728;28;20039;-80
2023/08/20 09:27:12;;;;;;;;;;;40.90;43.90;;;;;;5050566;28;20029;-81
2023/08/20 09:29:55;;;;;;;6.13;3.85;;;40.70;43.60;;;;;;5044575;28;19917;-81
2023/08/20 09:32:23;;;;;;;8.02;3.88;;;40.70;42.30;;;;;;5036558;28;20067;-82
2023/08/20 09:34:51;;;;;;;12.57;3.67;;;40.60;43.60;;;;;;5036717;28;20525;-81
2023/08/20 09:37:18;;;;;;;10.38;3.88;;;40.80;43.40;;;;;;5037762;28;20550;-82
2023/08/20 09:39:45;;;;;;;7.75;3.80;;;40.90;43.60;;;;;;5039346;28;20028;-81
2023/08/20 09:42:11;;;;;;;12.77;3.97;;;41.20;41.30;;;;;;5038178;28;20021;-81
2023/08/20 09:44:39;;;;;;;10.50;3.67;;;41.00;40.50;;;;;;5038259;28;20037;-82
2023/08/20 09:47:10;;;;;;;8.50;3.60;;;41.00;41.50;;;;;;5031000;28;20067;-81
2023/08/20 09:49:47;;;;;;;6.68;3.78;;;41.20;41.20;;;;;;5038950;28;20029;-80
2023/08/20 09:52:35;;;;;;;4.45;3.10;;;40.90;42.10;;;;;;5039853;28;20040;-81
2023/08/20 09:55:02;;;;;;;8.52;3.47;;;40.90;42.20;;;;;;5033060;28;20025;-82
2023/08/20 09:57:36;;;;;;;5.97;3.30;;;41.10;42.00;;;;;;5038303;28;20064;-80
2023/08/20 10:00:05;;;;;;;6.85;2.60;;;41.10;40.90;;;;;;5038958;28;20037;-80
2023/08/20 10:02:32;;;;;;;5.35;2.78;;;41.00;41.40;;;;;;5033618;28;20053;-80
2023/08/20 10:05:01;;;;;;;8.13;2.70;;;41.10;41.80;;;;;;5028208;28;20041;-82
2023/08/20 10:07:31;;;;;;;7.85;2.97;;;41.20;41.30;;;;;;5035485;28;20442;-81
2023/08/20 10:10:00;;;;;;;4.82;2.85;;;41.20;40.90;;;;;;5039806;28;20032;-81
2023/08/20 10:12:29;;;;;;;6.57;3.17;;;41.20;40.00;;;;;;5038209;28;20017;-79
2023/08/20 10:15:00;;;;;;;6.60;2.88;;;41.10;41.70;;;;;;5036061;28;20187;-80
2023/08/20 10:17:28;;;;;;;5.57;2.60;;;41.30;41.40;;;;;;5048144;28;20018;-81
2023/08/20 10:19:57;;;;;;;5.18;2.97;;;40.70;40.90;;;;;;5047961;28;20029;-82
2023/08/20 10:22:22;;;;;;;7.25;2.47;;;40.00;42.50;;;;;;5049411;28;20062;-81
2023/08/20 10:24:52;;;;;;;9.05;3.28;;;39.60;44.00;;;;;;5047869;28;20033;-81
2023/08/20 10:27:26;;;;;;;7.00;2.67;;;39.00;45.00;;;;;;5049018;28;20454;-80
2023/08/20 10:29:54;;;;;;;7.40;3.20;;;38.50;44.30;;;;;;5047980;28;20029;-80
2023/08/20 10:32:19;;;;;;;6.43;3.03;;;37.90;45.00;;;;;;5049396;28;20056;-79
2023/08/20 10:34:50;;;;;;;6.60;3.15;;;37.50;43.60;;;;;;5049300;28;20056;-82
2023/08/20 10:37:27;;;;;;;13.45;3.25;;;36.90;45.80;;;;;;5049244;28;20024;-81
2023/08/20 10:39:56;;;;;;;11.13;3.33;;;36.70;47.80;;;;;;5049243;28;20440;-81
2023/08/20 10:42:26;;;;;;;8.63;3.25;;;36.50;47.90;;;;;;5047735;28;20024;-81
2023/08/20 10:45:05;;;;;;;11.27;3.65;;;36.40;49.60;;;;;;5049115;28;20044;-81
2023/08/20 10:47:51;;;;;;;6.18;3.30;;;36.30;50.20;;;;;;5047786;28;20028;-81
2023/08/20 10:50:18;;;;;;;7.65;3.75;;;36.10;47.40;;;;;;5047746;28;20102;-80
2023/08/20 10:52:54;;;;;;;5.13;3.92;;;35.80;50.00;;;;;;5047875;28;20040;-81
2023/08/20 10:55:23;;;;;;;6.15;3.38;;;35.70;50.70;;;;;;5047648;28;20035;-81
2023/08/20 10:58:02;;;;;;;5.00;2.92;;;35.60;50.30;;;;;;5047958;28;20496;-81
2023/08/20 11:00:28;;;;;;;7.78;3.35;;;35.30;50.80;;;;;;5047610;28;20037;-80
2023/08/20 11:02:54;;;;;;;7.47;3.42;;;35.10;50.30;;;;;;5048922;28;20036;-80
2023/08/20 11:05:21;;;;;;;10.30;2.92;;;34.80;50.20;;;;;;5047593;28;20394;-79
2023/08/20 11:07:48;;;;;;;8.05;4.18;;;34.50;53.10;;;;;;5048997;28;20780;-78
2023/08/20 11:10:15;;;;;;;4.28;3.28;;;34.40;53.10;;;;;;5049030;28;20037;-79
2023/08/20 11:12:41;;;;;;;6.78;3.70;;;34.50;52.70;;;;;;5048894;28;20064;-78
2023/08/20 11:15:09;;;;;;;7.28;3.05;;;34.60;51.60;;;;;;5043927;28;20553;-78
2023/08/20 11:17:34;;;;;;;8.23;2.50;;;34.70;52.20;;;;;;5029125;28;20088;-79
2023/08/20 11:20:01;;;;;;;8.27;3.03;;;34.90;52.10;;;;;;5044367;28;20033;-78
2023/08/20 11:22:27;;;;;;;4.13;3.25;;;34.90;51.90;;;;;;5030312;28;20041;-80
2023/08/20 11:24:55;;;;;;;8.90;3.63;;;34.80;52.10;;;;;;5031247;28;20044;-79
2023/08/20 11:27:26;;;;;;;6.32;2.90;;;34.80;51.70;;;;;;5042483;28;20544;-78
2023/08/20 11:29:53;;;;;;;15.25;3.58;;;34.70;49.00;;;;;;5052387;28;20108;-79
2023/08/20 11:32:19;;;;;;;5.90;3.58;;;34.40;48.50;;;;;;5052434;28;20033;-79
2023/08/20 11:34:45;;;;;;;7.43;2.92;;;34.30;49.80;;;;;;5051066;28;20039;-80
2023/08/20 11:37:10;;;;;;;9.05;3.33;;;34.30;50.10;;;;;;5050921;28;20033;-79
2023/08/20 11:39:36;;;;;;;7.57;2.83;;;34.40;49.10;;;;;;5051996;28;20033;-80
2023/08/20 11:42:02;;;;;;;10.90;4.07;;;34.50;51.40;;;;;;5051085;28;20476;-79
2023/08/20 11:44:28;;;;;;;7.65;3.10;;;34.50;51.20;;;;;;5052187;28;20498;-81
2023/08/20 11:46:54;;;;;;;3.70;3.17;;;34.60;50.80;;;;;;5052097;28;20040;-79
2023/08/20 11:49:27;;;;;;;4.45;3.05;;;34.60;50.90;;;;;;5052099;28;20389;-79
2023/08/20 11:51:55;;;;;;;9.82;3.03;;;34.70;50.20;;;;;;5051911;28;20409;-79
2023/08/20 11:54:22;;;;;;;9.65;3.00;;;34.80;49.80;;;;;;5052027;28;20107;-79
2023/08/20 11:56:49;;;;;;;7.85;3.13;;;34.80;49.30;;;;;;5050557;28;20029;-80
2023/08/20 11:59:17;;;;;;;5.60;3.25;;;34.80;49.20;;;;;;5051668;28;20079;-79
2023/08/20 12:01:43;;;;;;;5.32;2.67;;;34.80;47.50;;;;;;5050505;28;20060;-80
2023/08/20 12:04:10;;;;;;;4.78;2.85;;;34.80;48.90;;;;;;5050243;28;20060;-79
2023/08/20 12:06:37;;;;;;;9.13;2.80;;;34.80;49.00;;;;;;5050291;28;20021;-80
2023/08/20 12:09:23;;;;;;;8.77;3.08;;;34.90;48.90;;;;;;5051802;28;20039;-80
2023/08/20 12:11:55;;;;;;;9.32;3.00;;;34.90;48.20;;;;;;5051595;28;20521;-80
2023/08/20 12:14:21;;;;;;;12.55;3.10;;;34.70;47.10;;;;;;5051373;28;20087;-80
2023/08/20 12:16:47;;;;;;;6.45;2.60;;;34.60;46.80;;;;;;5051637;28;20033;-79
2023/08/20 12:19:13;;;;;;;8.85;2.88;;;34.50;47.30;;;;;;5051452;28;20100;-80
2023/08/20 12:21:40;;;;;;;6.15;2.80;;;34.50;46.60;;;;;;5051451;28;20100;-79
2023/08/20 12:24:07;;;;;;;7.10;2.95;;;34.40;47.90;;;;;;5050052;28;20024;-79
2023/08/20 12:26:32;;;;;;;7.28;2.58;;;34.40;49.90;;;;;;5051237;28;20041;-79
2023/08/20 12:28:58;;;;;;;11.52;3.03;;;34.50;49.70;;;;;;5051300;28;20449;-78
2023/08/20 12:31:24;;;;;;;7.10;2.67;;;34.50;49.40;;;;;;5050206;28;20477;-79
2023/08/20 12:33:49;;;;;;;7.53;3.53;;;34.60;48.30;;;;;;5049423;28;20070;-79
2023/08/20 12:36:15;;;;;;;8.70;2.97;;;34.50;49.40;;;;;;5051234;28;20033;-79
2023/08/20 12:38:41;;;;;;;6.88;2.97;;;34.50;49.60;;;;;;5051159;28;20401;-80
2023/08/20 12:41:07;;;;;;;5.93;2.88;;;34.60;46.90;;;;;;5050971;28;20021;-80
2023/08/20 12:43:33;;;;;;;7.75;3.47;;;34.40;47.90;;;;;;5051028;28;20048;-80